createdAt,value
2023-04-07T00:00:55.882Z,3.23
2023-04-07T00:04:04.495Z,3.00
2023-04-07T00:07:12.901Z,3.30
2023-04-07T00:10:22.550Z,3.40
2023-04-07T00:13:30.944Z,3.30
2023-04-07T00:16:39.086Z,3.00
2023-04-07T00:19:47.206Z,3.17
2023-04-07T00:22:55.326Z,3.17
2023-04-07T00:26:04.970Z,3.37
2023-04-07T00:29:13.148Z,3.40
2023-04-07T00:32:21.334Z,3.60
2023-04-07T00:35:29.496Z,3.00
2023-04-07T00:38:37.640Z,3.50
2023-04-07T00:41:47.588Z,4.00
2023-04-07T00:44:55.741Z,3.43
2023-04-07T00:48:04.217Z,4.00
2023-04-07T00:51:12.903Z,3.73
2023-04-07T00:54:21.694Z,3.40
2023-04-07T00:57:31.500Z,3.90
2023-04-07T01:00:56.468Z,3.73
2023-04-07T01:04:13.970Z,3.23
2023-04-07T01:07:29.901Z,3.33
2023-04-07T01:11:03.604Z,3.40
2023-04-07T01:14:17.512Z,2.97
2023-04-07T01:17:29.793Z,2.97
2023-04-07T01:20:41.510Z,3.37
2023-04-07T01:24:04.908Z,3.17
2023-04-07T01:27:26.270Z,3.20
2023-04-07T01:30:41.253Z,3.33
2023-04-07T01:33:52.182Z,3.87
2023-04-07T01:37:03.746Z,3.60
2023-04-07T01:40:13.605Z,4.00
2023-04-07T01:43:24.504Z,2.90
2023-04-07T01:46:34.202Z,3.37
2023-04-07T01:49:43.135Z,2.87
2023-04-07T01:52:51.758Z,3.07
2023-04-07T01:55:59.842Z,3.00
2023-04-07T01:59:08.568Z,2.87
2023-04-07T02:02:18.522Z,3.40
2023-04-07T02:05:30.933Z,3.00
2023-04-07T02:08:50.079Z,2.70
2023-04-07T02:12:02.170Z,2.30
2023-04-07T02:15:16.982Z,2.83
2023-04-07T02:18:29.154Z,2.30
2023-04-07T02:21:38.257Z,3.50
2023-04-07T02:24:46.589Z,3.00
2023-04-07T02:27:56.397Z,3.33
2023-04-07T02:31:04.620Z,2.60
2023-04-07T02:34:15.498Z,3.47
2023-04-07T02:37:23.701Z,2.83
2023-04-07T02:40:32.045Z,2.90
2023-04-07T02:43:40.289Z,2.83
2023-04-07T02:46:48.418Z,3.27
2023-04-07T02:49:57.970Z,2.97
2023-04-07T02:53:06.926Z,2.73
2023-04-07T02:56:16.525Z,2.60
2023-04-07T02:59:24.908Z,2.70
2023-04-07T03:02:33.215Z,2.07
2023-04-07T03:05:42.989Z,2.37
2023-04-07T03:08:52.712Z,2.90
2023-04-07T03:12:02.237Z,2.67
2023-04-07T03:15:17.068Z,2.70
2023-04-07T03:18:29.225Z,2.33
2023-04-07T03:21:43.744Z,2.80
2023-04-07T03:24:52.252Z,2.67
2023-04-07T03:28:03.475Z,2.67
2023-04-07T03:31:15.618Z,2.83
2023-04-07T03:34:23.857Z,2.80
2023-04-07T03:37:33.417Z,2.70
2023-04-07T03:40:41.607Z,2.80
2023-04-07T03:43:50.082Z,2.43
2023-04-07T03:46:59.339Z,3.17
2023-04-07T03:50:10.384Z,2.80
2023-04-07T03:53:30.254Z,3.10
2023-04-07T03:56:40.214Z,2.40
2023-04-07T03:59:51.439Z,2.80
2023-04-07T04:03:00.866Z,3.10
2023-04-07T04:06:09.699Z,2.73
2023-04-07T04:09:20.816Z,3.03
2023-04-07T04:12:30.352Z,3.03
2023-04-07T04:15:47.363Z,2.77
2023-04-07T04:18:57.610Z,2.97
2023-04-07T04:22:07.459Z,2.83
2023-04-07T04:25:23.965Z,3.50
2023-04-07T04:28:38.468Z,3.57
2023-04-07T04:31:49.365Z,3.20
2023-04-07T04:34:58.685Z,3.37
2023-04-07T04:38:08.229Z,3.47
2023-04-07T04:41:19.507Z,3.43
2023-04-07T04:44:30.226Z,3.00
2023-04-07T04:47:40.445Z,2.90
2023-04-07T04:50:48.865Z,3.53
2023-04-07T04:53:57.248Z,3.17
2023-04-07T04:57:09.254Z,3.47
2023-04-07T05:00:20.438Z,3.77
2023-04-07T05:03:32.095Z,3.90
2023-04-07T05:06:45.726Z,3.67
2023-04-07T05:09:56.738Z,3.20
2023-04-07T05:13:07.280Z,3.50
2023-04-07T05:16:18.033Z,3.33
2023-04-07T05:19:27.263Z,3.63
2023-04-07T05:22:38.894Z,3.00
2023-04-07T05:25:49.829Z,3.40
2023-04-07T05:28:59.375Z,3.23
2023-04-07T05:32:07.955Z,3.77
2023-04-07T05:35:17.779Z,3.50
2023-04-07T05:38:32.814Z,3.60
2023-04-07T05:41:48.784Z,3.97
2023-04-07T05:44:59.152Z,4.17
2023-04-07T05:48:08.994Z,3.77
2023-04-07T05:51:23.268Z,4.53
2023-04-07T05:54:34.040Z,4.03
2023-04-07T05:57:45.324Z,4.07
2023-04-07T06:00:55.916Z,4.43
2023-04-07T06:04:04.377Z,4.53
2023-04-07T06:07:12.630Z,4.90
2023-04-07T06:10:24.352Z,3.80
2023-04-07T06:13:35.127Z,4.77
2023-04-07T06:16:46.237Z,4.67
2023-04-07T06:19:54.656Z,4.37
2023-04-07T06:23:02.885Z,4.67
2023-04-07T06:26:13.017Z,4.67
2023-04-07T06:29:21.213Z,3.93
2023-04-07T06:32:31.724Z,4.27
2023-04-07T06:35:41.802Z,4.47
2023-04-07T06:38:50.024Z,4.53
2023-04-07T06:41:58.217Z,3.77
2023-04-07T06:45:07.714Z,4.80
2023-04-07T06:48:17.217Z,3.93
2023-04-07T06:51:26.335Z,3.40
2023-04-07T06:54:34.728Z,3.70
2023-04-07T06:57:42.834Z,3.50
2023-04-07T07:00:51.051Z,4.50
2023-04-07T07:04:00.733Z,4.00
2023-04-07T07:07:08.993Z,4.07
2023-04-07T07:10:17.378Z,3.63
2023-04-07T07:13:27.768Z,3.67
2023-04-07T07:16:37.201Z,3.57
2023-04-07T07:19:46.670Z,3.63
2023-04-07T07:22:54.802Z,3.33
2023-04-07T07:26:04.162Z,4.20
2023-04-07T07:29:13.066Z,4.13
2023-04-07T07:32:22.130Z,3.83
2023-04-07T07:35:32.750Z,3.60
2023-04-07T07:38:42.246Z,3.80
2023-04-07T07:41:51.198Z,4.70
2023-04-07T07:45:00.327Z,3.93
2023-04-07T07:48:08.663Z,4.20
2023-04-07T07:51:18.745Z,3.57
2023-04-07T07:54:27.189Z,5.03
2023-04-07T07:57:35.289Z,4.03
2023-04-07T08:00:43.734Z,4.57
2023-04-07T08:03:52.441Z,3.83
2023-04-07T08:07:02.683Z,3.30
2023-04-07T08:10:11.704Z,4.10
2023-04-07T08:13:20.058Z,3.87
2023-04-07T08:16:28.315Z,3.97
2023-04-07T08:19:36.757Z,4.20
2023-04-07T08:22:47.054Z,3.80
2023-04-07T08:25:55.517Z,3.93
2023-04-07T08:29:03.732Z,3.63
2023-04-07T08:32:11.904Z,3.90
2023-04-07T08:35:20.409Z,4.10
2023-04-07T08:38:31.311Z,4.17
2023-04-07T08:41:44.692Z,3.93
2023-04-07T08:44:57.179Z,3.40
2023-04-07T08:48:16.598Z,3.20
2023-04-07T08:51:30.229Z,4.30
2023-04-07T08:54:39.988Z,3.33
2023-04-07T08:57:48.944Z,3.40
2023-04-07T09:00:57.704Z,3.13
2023-04-07T09:04:07.722Z,3.37
2023-04-07T09:07:16.234Z,3.30
2023-04-07T09:10:25.809Z,3.17
2023-04-07T09:13:34.270Z,3.33
2023-04-07T09:16:43.050Z,3.27
2023-04-07T09:19:52.443Z,3.07
2023-04-07T09:23:00.526Z,3.20
2023-04-07T09:26:25.195Z,3.90
2023-04-07T09:29:33.524Z,3.83
2023-04-07T09:32:42.823Z,3.30
2023-04-07T09:35:54.216Z,3.63
2023-04-07T09:39:10.716Z,3.20
2023-04-07T09:42:20.578Z,3.47
2023-04-07T09:45:35.185Z,3.30
2023-04-07T09:48:46.961Z,3.33
2023-04-07T09:51:58.194Z,3.03
2023-04-07T09:55:08.728Z,2.57
2023-04-07T09:58:18.987Z,3.23
2023-04-07T10:01:27.573Z,3.23
2023-04-07T10:04:36.120Z,3.00
2023-04-07T10:07:44.656Z,3.00
2023-04-07T10:10:53.524Z,3.00
2023-04-07T10:14:03.497Z,3.07
2023-04-07T10:17:12.268Z,3.23
2023-04-07T10:20:22.928Z,3.10
2023-04-07T10:23:47.450Z,3.00
2023-04-07T10:27:02.613Z,3.10
2023-04-07T10:30:19.846Z,3.20
2023-04-07T10:33:49.625Z,3.23
2023-04-07T10:37:14.274Z,3.10
2023-04-07T10:40:30.607Z,3.63
2023-04-07T10:43:41.669Z,3.47
2023-04-07T10:47:06.408Z,3.43
2023-04-07T10:50:23.828Z,3.50
2023-04-07T10:53:32.887Z,3.13
2023-04-07T10:57:10.690Z,3.50
2023-04-07T11:00:20.619Z,3.37
2023-04-07T11:03:32.594Z,3.60
2023-04-07T11:06:49.097Z,2.90
2023-04-07T11:10:11.646Z,3.30
2023-04-07T11:13:20.169Z,2.90
2023-04-07T11:16:40.466Z,3.50
2023-04-07T11:19:57.582Z,3.13
2023-04-07T11:23:05.978Z,2.67
2023-04-07T11:26:16.674Z,2.67
2023-04-07T11:29:30.495Z,2.60
2023-04-07T11:32:38.886Z,2.47
2023-04-07T11:35:57.943Z,2.60
2023-04-07T11:39:06.556Z,2.60
2023-04-07T11:42:14.974Z,2.67
2023-04-07T11:45:23.383Z,3.23
2023-04-07T11:48:33.348Z,2.70
2023-04-07T11:51:45.571Z,2.93
2023-04-07T11:54:54.254Z,3.07
2023-04-07T11:58:10.635Z,3.07
2023-04-07T12:01:19.700Z,2.40
2023-04-07T12:04:28.638Z,2.70
2023-04-07T12:07:39.645Z,2.77
2023-04-07T12:10:48.433Z,2.40
2023-04-07T12:13:56.884Z,2.63
2023-04-07T12:17:07.732Z,2.50
2023-04-07T12:20:17.485Z,2.43
2023-04-07T12:23:27.742Z,2.60
2023-04-07T12:26:36.138Z,2.73
2023-04-07T12:29:44.555Z,3.20
2023-04-07T12:32:55.669Z,2.53
2023-04-07T12:36:04.375Z,2.77
2023-04-07T12:39:14.511Z,2.43
2023-04-07T12:42:26.366Z,2.97
2023-04-07T12:45:35.092Z,2.30
2023-04-07T12:48:44.073Z,2.37
2023-04-07T12:51:53.081Z,2.50
2023-04-07T12:55:03.009Z,2.30
2023-04-07T12:58:12.226Z,2.80
2023-04-07T13:01:20.857Z,2.90
2023-04-07T13:04:30.973Z,2.63
2023-04-07T13:07:39.609Z,2.67
2023-04-07T13:10:49.671Z,2.57
2023-04-07T13:14:00.568Z,2.70
2023-04-07T13:17:11.783Z,2.47
2023-04-07T13:20:21.743Z,2.83
2023-04-07T13:23:39.374Z,2.73
2023-04-07T13:26:52.652Z,2.80
2023-04-07T13:30:01.234Z,2.93
2023-04-07T13:33:09.793Z,2.90
2023-04-07T13:36:20.025Z,3.17
2023-04-07T13:39:30.663Z,2.97
2023-04-07T13:42:41.184Z,3.50
2023-04-07T13:45:50.970Z,4.03
2023-04-07T13:48:59.930Z,3.97
2023-04-07T13:52:08.431Z,3.47
2023-04-07T13:55:20.282Z,3.83
2023-04-07T13:58:31.621Z,4.40
2023-04-07T14:01:40.771Z,3.73
2023-04-07T14:04:49.293Z,3.63
2023-04-07T14:07:57.666Z,3.83
2023-04-07T14:11:05.920Z,3.77
2023-04-07T14:14:15.810Z,4.63
2023-04-07T14:17:24.750Z,4.73
2023-04-07T14:20:33.257Z,4.23
2023-04-07T14:23:42.273Z,4.23
2023-04-07T14:26:51.091Z,4.17
2023-04-07T14:30:01.257Z,4.17
2023-04-07T14:33:09.481Z,3.97
2023-04-07T14:36:18.093Z,4.60
2023-04-07T14:39:26.739Z,4.03
2023-04-07T14:42:35.742Z,4.30
2023-04-07T14:45:45.566Z,4.37
2023-04-07T14:48:53.888Z,4.50
2023-04-07T14:52:02.262Z,4.60
2023-04-07T14:55:10.848Z,4.40
2023-04-07T14:58:19.128Z,4.00
2023-04-07T15:01:29.163Z,4.53
2023-04-07T15:04:38.855Z,4.37
2023-04-07T15:07:49.910Z,4.80
2023-04-07T15:10:58.324Z,4.50
2023-04-07T15:14:07.089Z,3.63
2023-04-07T15:17:17.068Z,4.43
2023-04-07T15:20:26.261Z,4.20
2023-04-07T15:23:34.983Z,4.80
2023-04-07T15:26:43.518Z,4.27
2023-04-07T15:29:52.771Z,4.27
2023-04-07T15:33:05.656Z,4.43
2023-04-07T15:36:14.466Z,3.67
2023-04-07T15:39:23.151Z,3.73
2023-04-07T15:42:33.693Z,3.37
2023-04-07T15:45:44.250Z,4.17
2023-04-07T15:48:54.748Z,3.13
2023-04-07T15:52:04.984Z,4.00
2023-04-07T15:55:13.391Z,4.13
2023-04-07T15:58:23.267Z,3.50
2023-04-07T16:01:32.686Z,3.90
2023-04-07T16:04:42.931Z,3.70
2023-04-07T16:07:51.369Z,3.37
2023-04-07T16:10:59.797Z,4.20
2023-04-07T16:14:14.469Z,3.83
2023-04-07T16:17:23.671Z,3.77
2023-04-07T16:20:34.192Z,3.70
2023-04-07T16:23:42.680Z,3.90
2023-04-07T16:26:52.486Z,3.60
2023-04-07T16:30:00.946Z,4.73
2023-04-07T16:33:09.445Z,3.70
2023-04-07T16:36:19.369Z,2.93
2023-04-07T16:39:29.562Z,3.73
2023-04-07T16:42:38.342Z,3.43
2023-04-07T16:45:52.418Z,3.83
2023-04-07T16:49:03.290Z,3.50
2023-04-07T16:52:13.384Z,3.70
2023-04-07T16:55:21.992Z,4.60
2023-04-07T16:58:30.725Z,4.60
2023-04-07T17:01:42.038Z,4.43
2023-04-07T17:04:50.735Z,5.20
2023-04-07T17:08:00.679Z,3.97
2023-04-07T17:11:10.416Z,4.20
2023-04-07T17:14:18.632Z,4.40
2023-04-07T17:17:27.138Z,4.60
2023-04-07T17:20:35.625Z,4.60
2023-04-07T17:23:45.710Z,4.33
2023-04-07T17:26:54.427Z,4.43
2023-04-07T17:30:03.360Z,4.13
2023-04-07T17:33:12.521Z,3.80
2023-04-07T17:36:21.199Z,4.10
2023-04-07T17:39:31.113Z,3.57
2023-04-07T17:42:40.048Z,3.00
2023-04-07T17:45:48.546Z,3.07
2023-04-07T17:48:59.107Z,3.27
2023-04-07T17:52:07.628Z,3.27
2023-04-07T17:55:22.397Z,2.80
2023-04-07T17:58:30.812Z,3.27
2023-04-07T18:01:39.754Z,3.20
2023-04-07T18:04:48.528Z,3.60
2023-04-07T18:07:57.187Z,4.37
2023-04-07T18:11:07.363Z,4.57
2023-04-07T18:14:16.533Z,3.80
2023-04-07T18:17:24.831Z,3.33
2023-04-07T18:20:33.142Z,3.83
2023-04-07T18:23:41.993Z,4.50
2023-04-07T18:26:51.752Z,4.13
2023-04-07T18:29:59.999Z,4.33
2023-04-07T18:33:08.793Z,5.40
2023-04-07T18:36:17.432Z,9.73
2023-04-07T18:39:28.170Z,6.93
2023-04-07T18:42:37.825Z,6.60
2023-04-07T18:45:47.063Z,5.90
2023-04-07T18:48:55.582Z,6.40
2023-04-07T18:52:05.640Z,6.50
2023-04-07T18:55:13.992Z,6.30
2023-04-07T18:58:23.652Z,6.80
2023-04-07T19:01:32.342Z,6.07
2023-04-07T19:04:40.650Z,6.50
2023-04-07T19:07:49.326Z,5.83
2023-04-07T19:10:57.546Z,4.90
2023-04-07T19:14:07.264Z,5.87
2023-04-07T19:17:15.780Z,5.43
2023-04-07T19:20:24.263Z,6.30
2023-04-07T19:23:32.754Z,6.07
2023-04-07T19:26:41.078Z,5.20
2023-04-07T19:29:52.059Z,4.67
2023-04-07T19:33:00.669Z,4.70
2023-04-07T19:36:09.191Z,5.43
2023-04-07T19:39:17.486Z,6.00
2023-04-07T19:42:26.380Z,8.07
2023-04-07T19:45:36.665Z,6.33
2023-04-07T19:48:45.551Z,6.10
2023-04-07T19:51:54.895Z,6.27
2023-04-07T19:55:06.181Z,6.17
2023-04-07T19:58:17.110Z,6.40
2023-04-07T20:01:27.297Z,7.50
2023-04-07T20:04:36.287Z,8.47
2023-04-07T20:07:44.828Z,6.80
2023-04-07T20:10:53.573Z,6.03
2023-04-07T20:14:02.073Z,5.07
2023-04-07T20:17:12.735Z,4.73
2023-04-07T20:20:22.464Z,4.97
2023-04-07T20:23:31.345Z,4.80
2023-04-07T20:26:39.658Z,4.47
2023-04-07T20:29:48.018Z,4.40
2023-04-07T20:32:58.089Z,4.23
2023-04-07T20:36:07.065Z,5.13
2023-04-07T20:39:15.304Z,5.13
2023-04-07T20:42:23.555Z,5.37
2023-04-07T20:45:31.816Z,5.70
2023-04-07T20:48:41.609Z,5.77
2023-04-07T20:51:49.936Z,5.43
2023-04-07T20:54:58.427Z,5.00
2023-04-07T20:58:06.835Z,4.93
2023-04-07T21:01:15.892Z,5.73
2023-04-07T21:04:25.861Z,5.30
2023-04-07T21:07:34.495Z,5.00
2023-04-07T21:10:43.135Z,5.03
2023-04-07T21:13:51.295Z,4.80
2023-04-07T21:17:00.039Z,4.33
2023-04-07T21:20:12.879Z,4.90
2023-04-07T21:23:21.289Z,5.57
2023-04-07T21:26:29.842Z,5.30
2023-04-07T21:29:40.285Z,5.17
2023-04-07T21:32:48.664Z,5.20
2023-04-07T21:35:58.771Z,4.50
2023-04-07T21:39:08.211Z,3.03
2023-04-07T21:42:17.455Z,4.10
2023-04-07T21:45:25.829Z,3.20
2023-04-07T21:48:34.955Z,4.20
2023-04-07T21:51:44.562Z,4.27
2023-04-07T21:54:52.744Z,4.03
2023-04-07T21:58:01.436Z,4.90
2023-04-07T22:01:12.360Z,3.90
2023-04-07T22:04:21.796Z,5.13
2023-04-07T22:07:31.487Z,5.17
2023-04-07T22:10:40.330Z,4.87
2023-04-07T22:13:48.408Z,4.70
2023-04-07T22:16:56.848Z,4.40
2023-04-07T22:20:05.820Z,3.97
2023-04-07T22:23:15.475Z,4.60
2023-04-07T22:26:24.275Z,5.23
2023-04-07T22:29:32.508Z,5.00
2023-04-07T22:32:41.493Z,5.37
2023-04-07T22:35:49.767Z,5.50
2023-04-07T22:38:59.765Z,5.50
2023-04-07T22:42:08.398Z,5.30
2023-04-07T22:45:17.276Z,5.10
2023-04-07T22:48:27.924Z,6.30
2023-04-07T22:51:37.249Z,5.53
2023-04-07T22:54:47.391Z,6.10
2023-04-07T22:57:55.900Z,6.00
2023-04-07T23:01:04.324Z,5.77
2023-04-07T23:04:12.523Z,6.10
2023-04-07T23:07:20.674Z,6.60
2023-04-07T23:10:33.140Z,5.80
2023-04-07T23:13:41.546Z,5.87
2023-04-07T23:16:50.011Z,6.30
2023-04-07T23:19:58.308Z,5.83
2023-04-07T23:23:06.532Z,5.57
2023-04-07T23:26:16.117Z,5.33
2023-04-07T23:29:24.351Z,4.87
2023-04-07T23:32:32.588Z,4.87
2023-04-07T23:35:40.971Z,5.97
2023-04-07T23:38:49.314Z,5.23
2023-04-07T23:41:59.449Z,5.20
2023-04-07T23:45:09.022Z,5.57
2023-04-07T23:48:17.164Z,5.20
2023-04-07T23:51:25.378Z,5.03
2023-04-07T23:54:33.571Z,4.77
2023-04-07T23:57:43.038Z,4.80
